Time;durP1;ratioP1;P1;durP2;ratioP2;P2;SDS_P1;SDS_P2;PMS_P1;PMS_P2;Temp;Humidity;BMP_temperature;BMP_pressure;BME280_temperature;BME280_humidity;BME280_pressure;Samples;Min_cycle;Max_cycle;Signal;HPM_P1;HPM_P2
2020/12/30 00:00:56;;;;;;;5.80;3.05;;;4.10;99.90;;;;;;5073187;28;20544;-80
2020/12/30 00:03:22;;;;;;;11.73;3.25;;;4.10;99.90;;;;;;5073332;28;20406;-80
2020/12/30 00:05:47;;;;;;;12.73;3.60;;;4.10;99.90;;;;;;5055311;28;20027;-80
2020/12/30 00:08:13;;;;;;;18.98;3.97;;;4.10;99.90;;;;;;5073313;28;20056;-80
2020/12/30 00:10:38;;;;;;;13.25;3.28;;;4.00;99.90;;;;;;5073194;28;20037;-81
2020/12/30 00:13:05;;;;;;;11.05;2.92;;;4.00;99.90;;;;;;5054965;28;20456;-80
2020/12/30 00:15:31;;;;;;;5.82;3.40;;;4.00;99.90;;;;;;5054670;28;20366;-80
2020/12/30 00:17:56;;;;;;;16.38;4.47;;;4.10;99.90;;;;;;5054792;28;20031;-80
2020/12/30 00:20:22;;;;;;;15.68;3.85;;;4.10;99.90;;;;;;5072671;28;20055;-80
2020/12/30 00:22:48;;;;;;;18.88;5.15;;;4.20;99.90;;;;;;5072142;28;20021;-80
2020/12/30 00:25:14;;;;;;;11.68;4.60;;;4.30;99.90;;;;;;5055418;28;20105;-79
2020/12/30 00:27:41;;;;;;;11.80;4.20;;;4.20;99.90;;;;;;5054327;28;20029;-81
2020/12/30 00:30:15;;;;;;;10.70;4.35;;;4.30;99.90;;;;;;5072371;28;20036;-80
2020/12/30 00:32:42;;;;;;;12.73;5.03;;;4.20;99.90;;;;;;5072735;28;20025;-80
2020/12/30 00:35:09;;;;;;;20.25;5.40;;;4.30;99.90;;;;;;5072842;28;20024;-80
2020/12/30 00:37:35;;;;;;;15.13;5.10;;;4.20;99.90;;;;;;5054598;28;20024;-80
2020/12/30 00:40:00;;;;;;;23.42;5.25;;;4.30;99.90;;;;;;5073030;28;20016;-79
2020/12/30 00:42:34;;;;;;;16.15;5.63;;;4.30;99.90;;;;;;5072656;28;20083;-80
2020/12/30 00:45:00;;;;;;;;;;;4.30;99.90;;;;;;5054999;28;20024;-80
2020/12/30 00:47:29;;;;;;;16.80;4.47;;;4.30;99.90;;;;;;5054271;28;19930;-80
2020/12/30 00:49:54;;;;;;;16.27;4.00;;;4.30;99.90;;;;;;5071757;28;20032;-80
2020/12/30 00:52:20;;;;;;;17.15;3.97;;;4.30;99.90;;;;;;5071590;28;20035;-80
2020/12/30 00:54:46;;;;;;;18.00;3.83;;;4.30;99.90;;;;;;5071892;28;20111;-80
2020/12/30 00:57:11;;;;;;;11.63;3.03;;;4.30;99.90;;;;;;5071678;28;20454;-80
2020/12/30 00:59:39;;;;;;;21.35;3.33;;;4.40;99.90;;;;;;5054128;28;20032;-80
2020/12/30 01:02:05;;;;;;;8.07;2.17;;;4.30;99.90;;;;;;5071458;28;20432;-80
2020/12/30 01:04:31;;;;;;;5.38;1.85;;;4.30;99.90;;;;;;5053691;28;20025;-80
2020/12/30 01:06:56;;;;;;;11.15;2.25;;;4.20;99.90;;;;;;5071929;28;20093;-80
2020/12/30 01:09:23;;;;;;;5.53;1.67;;;4.20;99.90;;;;;;5071824;28;20036;-80
2020/12/30 01:11:49;;;;;;;8.32;1.35;;;4.10;99.90;;;;;;5053908;28;20106;-79
2020/12/30 01:14:15;;;;;;;6.40;1.73;;;4.00;99.90;;;;;;5053744;28;20487;-80
2020/12/30 01:16:40;;;;;;;9.35;1.50;;;4.00;99.90;;;;;;5054112;28;20040;-80
2020/12/30 01:19:06;;;;;;;3.03;1.38;;;4.00;99.90;;;;;;5071359;28;20126;-80
2020/12/30 01:21:39;;;;;;;1.52;0.95;;;4.00;99.90;;;;;;5054298;28;20027;-80
2020/12/30 01:24:04;;;;;;;4.95;1.00;;;4.00;99.90;;;;;;5071727;28;20504;-79
2020/12/30 01:26:30;;;;;;;4.43;0.88;;;3.90;99.90;;;;;;5071823;28;20020;-80
2020/12/30 01:28:56;;;;;;;10.48;1.35;;;3.90;99.90;;;;;;5071510;28;20504;-80
2020/12/30 01:31:29;;;;;;;2.33;0.80;;;3.90;99.90;;;;;;5053737;28;20024;-80
2020/12/30 01:33:55;;;;;;;7.78;1.05;;;3.90;99.90;;;;;;5071502;28;20078;-80
2020/12/30 01:36:21;;;;;;;2.63;1.05;;;3.90;99.90;;;;;;5053633;28;20489;-80
2020/12/30 01:38:47;;;;;;;8.93;1.10;;;3.90;99.90;;;;;;5071203;28;20467;-80
2020/12/30 01:41:13;;;;;;;6.82;0.85;;;3.90;99.90;;;;;;5071642;28;20025;-81
2020/12/30 01:43:38;;;;;;;6.97;1.08;;;3.90;99.90;;;;;;5071195;28;20435;-80
2020/12/30 01:46:04;;;;;;;1.35;0.77;;;3.90;99.90;;;;;;5071446;28;20035;-80
2020/12/30 01:48:31;;;;;;;19.88;1.23;;;3.90;99.90;;;;;;5071197;28;20050;-80
2020/12/30 01:50:57;;;;;;;13.10;1.20;;;3.90;99.90;;;;;;5071336;28;20029;-80
2020/12/30 01:53:23;;;;;;;10.82;1.27;;;3.90;99.90;;;;;;5053521;28;20178;-81
2020/12/30 01:55:52;;;;;;;3.30;1.50;;;3.90;99.90;;;;;;5071199;28;20035;-81
2020/12/30 01:58:18;;;;;;;9.75;1.27;;;4.00;99.90;;;;;;5070938;28;20021;-80
2020/12/30 02:00:48;;;;;;;8.32;1.30;;;4.00;99.90;;;;;;5071257;28;20500;-80
2020/12/30 02:03:15;;;;;;;7.45;1.50;;;4.10;99.90;;;;;;5053408;28;20033;-80
2020/12/30 02:05:42;;;;;;;5.32;1.65;;;4.10;99.90;;;;;;5071205;28;20024;-80
2020/12/30 02:08:09;;;;;;;16.10;2.88;;;4.10;99.90;;;;;;5071052;28;20495;-80
2020/12/30 02:10:35;;;;;;;17.77;3.67;;;4.20;99.90;;;;;;5071066;28;20029;-80
2020/12/30 02:13:00;;;;;;;14.05;3.85;;;4.20;99.90;;;;;;5053906;28;20032;-79
2020/12/30 02:15:32;;;;;;;10.40;3.47;;;4.20;99.90;;;;;;5074698;28;20086;-80
2020/12/30 02:17:59;;;;;;;12.93;5.20;;;4.30;99.90;;;;;;5074769;28;20020;-81
2020/12/30 02:20:30;;;;;;;25.08;6.60;;;4.30;99.90;;;;;;5074869;28;20017;-81
2020/12/30 02:23:04;;;;;;;31.35;12.20;;;4.30;99.90;;;;;;5056985;28;20074;-81
2020/12/30 02:25:30;;;;;;;26.27;11.98;;;4.40;99.90;;;;;;5074865;28;20055;-80
2020/12/30 02:27:56;;;;;;;35.47;13.38;;;4.40;99.90;;;;;;5074264;28;20052;-80
2020/12/30 02:30:21;;;;;;;28.90;12.82;;;4.40;99.90;;;;;;5074949;28;20072;-81
2020/12/30 02:32:47;;;;;;;42.78;16.33;;;4.50;99.90;;;;;;5056821;28;20093;-80
2020/12/30 02:35:14;;;;;;;36.17;14.90;;;4.50;99.90;;;;;;5074425;28;20512;-80
2020/12/30 02:37:40;;;;;;;37.13;15.43;;;4.50;99.90;;;;;;5074382;28;20024;-81
2020/12/30 02:40:05;;;;;;;47.10;16.92;;;4.50;99.90;;;;;;5056786;28;20027;-80
2020/12/30 02:42:32;;;;;;;46.70;16.65;;;4.50;99.90;;;;;;5074354;28;20020;-79
2020/12/30 02:45:08;;;;;;;45.13;14.90;;;4.50;99.90;;;;;;5074352;28;20495;-80
2020/12/30 02:47:34;;;;;;;36.42;14.70;;;4.60;99.90;;;;;;5056277;28;20444;-80
2020/12/30 02:50:01;;;;;;;39.20;13.40;;;4.60;99.90;;;;;;5074135;28;20029;-80
2020/12/30 02:52:27;;;;;;;35.08;12.18;;;4.60;99.90;;;;;;5074235;28;20040;-80
2020/12/30 02:54:53;;;;;;;28.25;10.32;;;4.60;99.90;;;;;;5056085;28;20028;-80
2020/12/30 02:57:19;;;;;;;39.22;10.73;;;4.60;99.90;;;;;;5073949;28;20381;-81
2020/12/30 02:59:45;;;;;;;40.78;10.07;;;4.60;99.90;;;;;;5056494;28;20485;-79
2020/12/30 03:02:11;;;;;;;28.95;9.45;;;4.60;99.90;;;;;;5074748;28;20086;-80
2020/12/30 03:04:37;;;;;;;29.45;8.98;;;4.60;99.90;;;;;;5074719;28;20025;-80
2020/12/30 03:07:02;;;;;;;30.60;8.85;;;4.60;99.90;;;;;;5074321;28;20499;-80
2020/12/30 03:09:28;;;;;;;23.38;8.30;;;4.50;99.90;;;;;;5074473;28;20055;-80
2020/12/30 03:11:53;;;;;;;26.80;7.55;;;4.60;99.90;;;;;;5074250;28;20620;-80
2020/12/30 03:14:19;;;;;;;41.60;7.18;;;4.60;99.90;;;;;;5074102;28;20081;-80
2020/12/30 03:16:46;;;;;;;19.50;6.75;;;4.60;99.90;;;;;;5056126;28;20028;-80
2020/12/30 03:19:11;;;;;;;18.80;5.57;;;4.60;99.90;;;;;;5073839;28;20059;-80
2020/12/30 03:21:37;;;;;;;19.10;5.20;;;4.60;99.90;;;;;;5055967;28;20056;-80
2020/12/30 03:24:03;;;;;;;31.17;6.13;;;4.60;99.90;;;;;;5055592;28;20025;-80
2020/12/30 03:26:31;;;;;;;30.15;7.30;;;4.60;99.90;;;;;;5055433;28;20059;-80
2020/12/30 03:28:58;;;;;;;19.13;6.47;;;4.60;99.90;;;;;;5054982;28;20024;-80
2020/12/30 03:31:23;;;;;;;26.42;7.60;;;4.60;99.90;;;;;;5073915;28;20028;-80
2020/12/30 03:33:49;;;;;;;38.38;6.85;;;4.60;99.90;;;;;;5055827;28;20418;-80
2020/12/30 03:36:14;;;;;;;27.67;6.60;;;4.70;99.90;;;;;;5073532;28;20067;-81
2020/12/30 03:38:40;;;;;;;28.80;7.47;;;4.70;99.90;;;;;;5072920;28;20024;-80
2020/12/30 03:41:05;;;;;;;20.95;6.68;;;4.70;99.90;;;;;;5055440;28;20085;-80
2020/12/30 03:43:31;;;;;;;22.35;7.40;;;4.70;99.90;;;;;;5073239;28;20035;-80
2020/12/30 03:45:57;;;;;;;20.30;7.10;;;4.70;99.90;;;;;;5073344;28;20498;-81
2020/12/30 03:48:22;;;;;;;33.33;8.07;;;4.70;99.90;;;;;;5072973;28;20028;-79
2020/12/30 03:50:48;;;;;;;27.63;9.50;;;4.70;99.90;;;;;;5072961;28;20157;-81
2020/12/30 03:53:14;;;;;;;34.60;10.45;;;4.70;99.90;;;;;;5073390;28;20051;-80
2020/12/30 03:55:39;;;;;;;25.70;10.50;;;4.70;99.90;;;;;;5073123;28;20037;-80
2020/12/30 03:58:05;;;;;;;32.15;9.32;;;4.60;99.90;;;;;;5073216;28;20025;-80
2020/12/30 04:00:30;;;;;;;32.83;11.82;;;4.60;99.90;;;;;;5073167;28;20025;-81
2020/12/30 04:02:56;;;;;;;45.00;10.32;;;4.50;99.90;;;;;;5055400;28;20032;-80
2020/12/30 04:05:21;;;;;;;32.25;11.88;;;4.60;99.90;;;;;;5073127;28;20032;-80
2020/12/30 04:07:47;;;;;;;37.38;12.07;;;4.60;99.90;;;;;;5073016;28;20032;-80
2020/12/30 04:10:13;;;;;;;34.63;10.50;;;4.50;99.90;;;;;;5055167;28;20036;-80
2020/12/30 04:12:38;;;;;;;34.13;11.30;;;4.60;99.90;;;;;;5072929;28;20033;-80
2020/12/30 04:15:04;;;;;;;33.55;10.88;;;4.50;99.90;;;;;;5072749;28;20032;-80
2020/12/30 04:17:30;;;;;;;37.08;10.63;;;4.50;99.90;;;;;;5072524;28;20419;-80
2020/12/30 04:19:56;;;;;;;40.33;10.68;;;4.50;99.90;;;;;;5072855;28;20050;-79
2020/12/30 04:22:21;;;;;;;35.10;11.50;;;4.50;99.90;;;;;;5072656;28;20032;-80
2020/12/30 04:24:47;;;;;;;40.80;11.27;;;4.50;99.90;;;;;;5072438;28;20031;-81
2020/12/30 04:27:12;;;;;;;38.47;11.20;;;4.40;99.90;;;;;;5072383;28;20024;-80
2020/12/30 04:29:38;;;;;;;39.15;12.85;;;4.40;99.90;;;;;;5072517;28;20028;-80
2020/12/30 04:32:03;;;;;;;35.53;12.02;;;4.40;99.90;;;;;;5054514;28;20094;-80
2020/12/30 04:34:29;;;;;;;45.15;13.75;;;4.40;99.90;;;;;;5072192;28;20066;-80
2020/12/30 04:36:55;;;;;;;38.17;13.73;;;4.40;99.90;;;;;;5071376;28;20549;-80
2020/12/30 04:39:20;;;;;;;41.58;15.65;;;4.40;99.90;;;;;;5071841;28;20107;-80
2020/12/30 04:41:47;;;;;;;35.40;13.32;;;4.40;99.90;;;;;;5072152;28;20032;-80
2020/12/30 04:44:16;;;;;;;48.60;14.27;;;4.40;99.90;;;;;;5054314;28;20021;-80
2020/12/30 04:46:43;;;;;;;44.83;14.75;;;4.40;99.90;;;;;;5054523;28;20408;-79
2020/12/30 04:49:10;;;;;;;50.33;13.60;;;4.40;99.90;;;;;;5072032;28;20436;-80
2020/12/30 04:51:38;;;;;;;39.35;13.90;;;4.40;99.90;;;;;;5072292;28;20024;-80
2020/12/30 04:54:03;;;;;;;38.75;12.63;;;4.40;99.90;;;;;;5072113;28;20040;-80
2020/12/30 04:56:41;;;;;;;33.20;12.18;;;4.40;99.90;;;;;;5054281;28;20501;-80
2020/12/30 04:59:11;;;;;;;41.45;14.18;;;4.40;99.90;;;;;;5052211;28;20118;-80
2020/12/30 05:01:53;;;;;;;43.38;15.57;;;4.40;99.90;;;;;;5052225;28;20017;-80
2020/12/30 05:04:21;;;;;;;30.85;13.55;;;4.40;99.90;;;;;;5053532;28;20036;-80
2020/12/30 05:06:49;;;;;;;39.38;15.25;;;4.40;99.90;;;;;;5072042;28;20048;-80
2020/12/30 05:09:19;;;;;;;41.38;15.70;;;4.40;99.90;;;;;;5054072;28;20024;-80
2020/12/30 05:11:44;;;;;;;45.13;15.63;;;4.40;99.90;;;;;;5071651;28;20031;-79
2020/12/30 05:14:10;;;;;;;31.45;11.77;;;4.40;99.90;;;;;;5071650;28;20389;-79
2020/12/30 05:16:36;;;;;;;41.60;11.88;;;4.50;99.90;;;;;;5053760;28;20123;-80
2020/12/30 05:19:05;;;;;;;39.38;11.45;;;4.50;99.90;;;;;;5053856;28;20025;-80
2020/12/30 05:21:31;;;;;;;35.80;9.30;;;4.50;99.90;;;;;;5071814;28;20017;-81
2020/12/30 05:23:57;;;;;;;24.58;9.93;;;4.60;99.90;;;;;;5071355;28;20029;-81
2020/12/30 05:26:24;;;;;;;36.17;8.82;;;4.60;99.90;;;;;;5071751;28;20438;-80
2020/12/30 05:28:50;;;;;;;30.40;8.93;;;4.60;99.90;;;;;;5071598;28;20033;-81
2020/12/30 05:31:16;;;;;;;35.80;9.10;;;4.60;99.90;;;;;;5071782;28;20029;-79
2020/12/30 05:33:42;;;;;;;28.60;6.40;;;4.60;99.90;;;;;;5071669;28;20557;-80
2020/12/30 05:36:08;;;;;;;30.52;6.60;;;4.60;99.90;;;;;;5072132;28;20025;-80
2020/12/30 05:38:33;;;;;;;22.98;4.80;;;4.60;99.90;;;;;;5071869;28;20032;-80
2020/12/30 05:40:59;;;;;;;20.15;3.47;;;4.70;99.90;;;;;;5072189;28;20031;-79
2020/12/30 05:43:27;;;;;;;24.33;4.13;;;4.70;99.90;;;;;;5071871;28;20454;-80
2020/12/30 05:45:54;;;;;;;33.45;4.25;;;4.70;99.90;;;;;;5071388;28;20100;-80
2020/12/30 05:48:21;;;;;;;22.77;3.67;;;4.70;99.90;;;;;;5074882;28;20086;-80
2020/12/30 05:50:54;;;;;;;23.48;2.40;;;4.70;99.90;;;;;;5075872;28;20020;-81
2020/12/30 05:53:21;;;;;;;15.82;3.17;;;4.70;99.90;;;;;;5076139;28;20078;-80
2020/12/30 05:55:49;;;;;;;26.92;2.70;;;4.70;99.90;;;;;;5057610;28;20043;-80
2020/12/30 05:58:17;;;;;;;30.17;3.95;;;4.70;99.90;;;;;;5075150;28;20428;-80
2020/12/30 06:00:44;;;;;;;17.27;2.72;;;4.80;99.90;;;;;;5075375;28;20040;-80
2020/12/30 06:03:14;;;;;;;31.73;4.55;;;4.80;99.90;;;;;;5075300;28;20021;-80
2020/12/30 06:05:39;;;;;;;18.42;3.08;;;4.80;99.90;;;;;;5057592;28;20024;-80
2020/12/30 06:08:05;;;;;;;22.98;3.92;;;4.80;99.90;;;;;;5075776;28;20116;-80
2020/12/30 06:10:32;;;;;;;39.00;3.67;;;4.80;99.90;;;;;;5057741;28;20028;-81
2020/12/30 06:12:59;;;;;;;8.52;2.42;;;4.90;99.90;;;;;;5074794;28;20028;-80
2020/12/30 06:15:32;;;;;;;9.65;2.58;;;4.80;99.90;;;;;;5056756;28;20033;-80
2020/12/30 06:18:05;;;;;;;15.32;3.72;;;4.80;99.90;;;;;;5075313;28;20047;-79
2020/12/30 06:20:33;;;;;;;17.52;3.38;;;4.70;99.90;;;;;;5075364;28;20025;-80
2020/12/30 06:23:15;;;;;;;18.05;3.70;;;4.70;99.90;;;;;;5057263;28;20082;-80
2020/12/30 06:25:41;;;;;;;21.88;3.08;;;4.70;99.90;;;;;;5075106;28;20025;-80
2020/12/30 06:28:18;;;;;;;21.48;3.13;;;4.70;99.90;;;;;;5074728;28;20060;-80
2020/12/30 06:30:46;;;;;;;13.45;2.53;;;4.60;99.90;;;;;;5074827;28;20034;-79
2020/12/30 06:33:12;;;;;;;13.32;2.65;;;4.60;99.90;;;;;;5056643;28;20518;-79
2020/12/30 06:35:40;;;;;;;22.88;3.17;;;4.60;99.90;;;;;;5074351;28;20035;-80
2020/12/30 06:38:20;;;;;;;25.58;3.47;;;4.70;99.90;;;;;;5074584;28;20074;-81
2020/12/30 06:41:01;;;;;;;17.27;3.80;;;4.60;99.90;;;;;;5074662;28;20066;-80
2020/12/30 06:43:46;;;;;;;21.63;3.40;;;4.60;99.90;;;;;;5056415;28;20025;-81
2020/12/30 06:46:21;;;;;;;24.35;3.55;;;4.70;99.90;;;;;;5074401;28;20040;-80
2020/12/30 06:48:57;;;;;;;20.17;2.90;;;4.70;99.90;;;;;;5056443;28;20580;-81
2020/12/30 06:51:23;;;;;;;23.38;3.35;;;4.70;99.90;;;;;;5074431;28;20063;-80
2020/12/30 06:53:50;;;;;;;14.65;2.75;;;4.70;99.90;;;;;;5074015;28;20457;-81
2020/12/30 06:56:34;;;;;;;7.78;3.13;;;4.60;99.90;;;;;;5074047;28;20032;-80
2020/12/30 06:58:59;;;;;;;9.68;3.45;;;4.70;99.90;;;;;;5073202;28;20029;-81
2020/12/30 07:01:25;;;;;;;11.07;3.35;;;4.70;99.90;;;;;;5074166;28;20035;-80
2020/12/30 07:03:51;;;;;;;20.92;4.22;;;4.70;99.90;;;;;;5073428;28;20024;-81
2020/12/30 07:06:31;;;;;;;12.93;3.20;;;4.70;99.90;;;;;;5074192;28;20074;-81
2020/12/30 07:09:02;;;;;;;9.35;2.50;;;4.70;99.90;;;;;;5074074;28;20043;-79
2020/12/30 07:11:40;;;;;;;10.48;3.25;;;4.60;99.90;;;;;;5074080;28;20033;-79
2020/12/30 07:14:08;;;;;;;9.55;2.13;;;4.60;99.90;;;;;;5035748;28;20035;-80
2020/12/30 07:16:35;;;;;;;8.57;2.45;;;4.50;99.90;;;;;;5069368;28;20029;-80
2020/12/30 07:19:01;;;;;;;9.25;1.83;;;4.50;99.90;;;;;;5073907;28;20404;-80
2020/12/30 07:21:27;;;;;;;11.13;2.13;;;4.40;99.90;;;;;;5055849;28;20549;-80
2020/12/30 07:23:56;;;;;;;10.77;1.67;;;4.30;99.90;;;;;;5073165;28;20829;-80
2020/12/30 07:26:22;;;;;;;5.57;1.40;;;4.40;99.90;;;;;;5073726;28;20036;-79
2020/12/30 07:28:48;;;;;;;3.85;1.40;;;4.30;99.90;;;;;;5073394;28;20028;-80
2020/12/30 07:31:16;;;;;;;10.18;1.85;;;4.30;99.90;;;;;;5055780;28;20032;-81
2020/12/30 07:33:42;;;;;;;15.20;1.88;;;4.30;99.90;;;;;;5073348;28;20032;-80
2020/12/30 07:36:08;;;;;;;8.05;2.72;;;4.30;99.90;;;;;;5073376;28;20031;-80
2020/12/30 07:38:35;;;;;;;17.92;1.98;;;4.30;99.90;;;;;;5073477;28;20031;-80
2020/12/30 07:41:08;;;;;;;9.25;2.05;;;4.30;99.90;;;;;;5073738;28;20031;-80
2020/12/30 07:43:48;;;;;;;15.68;2.15;;;4.30;99.90;;;;;;5073443;28;20032;-80
2020/12/30 07:46:14;;;;;;;20.08;2.60;;;4.30;99.90;;;;;;5073783;28;20098;-80
2020/12/30 07:48:40;;;;;;;24.00;3.60;;;4.30;99.90;;;;;;5073539;28;20114;-80
2020/12/30 07:51:06;;;;;;;21.95;3.22;;;4.40;99.90;;;;;;5055482;28;20044;-80
2020/12/30 07:53:31;;;;;;;15.10;3.17;;;4.40;99.90;;;;;;5073118;28;20039;-81
2020/12/30 07:55:57;;;;;;;17.58;2.92;;;4.50;99.90;;;;;;5055071;28;20032;-80
2020/12/30 07:58:24;;;;;;;18.58;3.22;;;4.50;99.90;;;;;;5072979;28;20036;-80
2020/12/30 08:00:52;;;;;;;24.60;3.20;;;4.60;99.90;;;;;;5070773;28;20397;-80
2020/12/30 08:03:20;;;;;;;31.38;3.90;;;4.60;99.90;;;;;;5072198;28;20028;-80
2020/12/30 08:05:47;;;;;;;8.43;2.75;;;4.70;99.90;;;;;;5072580;28;20116;-80
2020/12/30 08:08:13;;;;;;;18.65;3.20;;;4.70;99.90;;;;;;5072684;28;20043;-80
2020/12/30 08:10:38;;;;;;;17.35;3.10;;;4.70;99.90;;;;;;5073369;28;20055;-78
2020/12/30 08:13:08;;;;;;;23.75;4.60;;;4.80;99.90;;;;;;5055029;28;20068;-78
2020/12/30 08:15:33;;;;;;;18.35;2.80;;;4.80;99.90;;;;;;5072515;28;20025;-80
2020/12/30 08:18:00;;;;;;;10.88;2.88;;;4.80;99.90;;;;;;5072468;28;20024;-80
2020/12/30 08:20:25;;;;;;;15.77;3.33;;;4.80;99.90;;;;;;5072627;28;20452;-80
2020/12/30 08:22:56;;;;;;;21.50;4.15;;;4.80;99.90;;;;;;5072331;28;20078;-80
2020/12/30 08:25:22;;;;;;;17.20;3.05;;;4.80;99.90;;;;;;5072291;28;20024;-81
2020/12/30 08:27:48;;;;;;;22.83;3.03;;;4.70;99.90;;;;;;5072231;28;20086;-80
2020/12/30 08:30:14;;;;;;;18.00;3.03;;;4.70;99.90;;;;;;5072272;28;20024;-80
2020/12/30 08:33:05;;;;;;;17.48;3.33;;;4.70;99.90;;;;;;5072127;28;20382;-80
2020/12/30 08:35:37;;;;;;;15.35;3.13;;;4.70;99.90;;;;;;5045264;28;20079;-81
2020/12/30 08:38:10;;;;;;;24.98;4.30;;;4.70;99.90;;;;;;5045577;28;20021;-80
2020/12/30 08:40:38;;;;;;;22.52;4.00;;;4.70;99.90;;;;;;5071862;28;20019;-81
2020/12/30 08:43:20;;;;;;;20.70;4.32;;;4.70;99.90;;;;;;5071752;28;20028;-80
2020/12/30 08:46:00;;;;;;;27.30;5.25;;;4.80;99.90;;;;;;5053979;28;20033;-81
2020/12/30 08:48:29;;;;;;;31.50;4.43;;;4.80;99.90;;;;;;5068798;28;20028;-80
2020/12/30 08:50:55;;;;;;;20.95;4.57;;;4.80;99.90;;;;;;5072021;28;20032;-81
2020/12/30 08:53:39;;;;;;;34.55;5.10;;;4.90;99.90;;;;;;5053920;28;20162;-80
2020/12/30 08:56:06;;;;;;;18.08;4.18;;;4.90;99.90;;;;;;5071828;28;20025;-80
2020/12/30 08:58:32;;;;;;;28.50;4.10;;;4.80;99.90;;;;;;5071954;28;20021;-80
2020/12/30 09:00:58;;;;;;;20.30;3.50;;;4.80;99.90;;;;;;5071870;28;20016;-80
2020/12/30 09:03:26;;;;;;;14.32;3.20;;;4.80;99.90;;;;;;5054039;28;20555;-80
2020/12/30 09:05:54;;;;;;;19.13;3.55;;;4.80;99.90;;;;;;5053542;28;20020;-80
2020/12/30 09:08:22;;;;;;;18.73;3.78;;;4.80;99.90;;;;;;5071933;28;20063;-80
2020/12/30 09:10:49;;;;;;;15.75;2.78;;;4.70;99.90;;;;;;5053855;28;20024;-80
2020/12/30 09:13:22;;;;;;;12.13;3.30;;;4.70;99.90;;;;;;5053825;28;20119;-80
2020/12/30 09:15:56;;;;;;;13.23;4.03;;;4.80;99.90;;;;;;5053581;28;20063;-80
2020/12/30 09:18:26;;;;;;;17.35;3.58;;;4.80;99.90;;;;;;5071652;28;20029;-80
2020/12/30 09:20:52;;;;;;;12.30;4.18;;;4.80;99.90;;;;;;5053799;28;20492;-80
2020/12/30 09:23:25;;;;;;;11.18;2.80;;;4.80;99.90;;;;;;5071358;28;20370;-79
2020/12/30 09:25:51;;;;;;;16.95;3.60;;;4.90;99.90;;;;;;5071237;28;20032;-78
2020/12/30 09:28:26;;;;;;;12.98;3.20;;;4.90;99.90;;;;;;5067702;28;20067;-79
2020/12/30 09:30:54;;;;;;;25.08;3.65;;;4.90;99.90;;;;;;5051512;28;20095;-79
2020/12/30 09:33:25;;;;;;;14.77;3.00;;;4.90;99.90;;;;;;5033732;28;20027;-79
2020/12/30 09:35:52;;;;;;;11.65;3.17;;;4.90;99.90;;;;;;5051085;28;20028;-79
2020/12/30 09:38:20;;;;;;;18.80;3.58;;;5.00;99.90;;;;;;5051498;28;20090;-79
2020/12/30 09:40:48;;;;;;;20.15;3.67;;;4.90;99.90;;;;;;5066941;28;20442;-79
2020/12/30 09:43:17;;;;;;;23.55;3.78;;;4.90;99.90;;;;;;5071251;28;20066;-79
2020/12/30 09:45:44;;;;;;;23.95;4.00;;;5.00;99.90;;;;;;5071387;28;20501;-79
2020/12/30 09:48:19;;;;;;;16.52;3.70;;;5.00;99.90;;;;;;5053298;28;20115;-81
2020/12/30 09:50:46;;;;;;;17.58;4.90;;;4.90;99.90;;;;;;5071281;28;20028;-79
2020/12/30 09:53:12;;;;;;;29.05;5.40;;;5.00;99.90;;;;;;5071244;28;20396;-78
2020/12/30 09:55:41;;;;;;;18.65;4.93;;;5.00;99.90;;;;;;5071061;28;20037;-78
2020/12/30 09:58:07;;;;;;;32.72;4.28;;;5.10;99.90;;;;;;5051339;28;20021;-79
2020/12/30 10:00:33;;;;;;;17.75;4.05;;;5.10;99.90;;;;;;5051423;28;20025;-79
2020/12/30 10:02:58;;;;;;;13.75;3.88;;;5.20;99.90;;;;;;5051701;28;20029;-79
2020/12/30 10:05:24;;;;;;;15.50;2.92;;;5.20;99.90;;;;;;5057054;28;20126;-80
2020/12/30 10:07:49;;;;;;;11.98;2.97;;;5.20;99.90;;;;;;5070946;28;20060;-79
2020/12/30 10:10:15;;;;;;;11.15;3.30;;;5.30;99.90;;;;;;5070969;28;20488;-79
2020/12/30 10:12:41;;;;;;;22.85;3.03;;;5.20;99.90;;;;;;5052951;28;20036;-79
2020/12/30 10:15:07;;;;;;;12.88;2.53;;;5.30;99.90;;;;;;5070995;28;20033;-79
2020/12/30 10:17:33;;;;;;;14.13;2.63;;;5.30;99.90;;;;;;5070185;28;20024;-79
2020/12/30 10:19:59;;;;;;;9.85;2.63;;;5.30;99.90;;;;;;5053179;28;20024;-80
2020/12/30 10:22:25;;;;;;;13.77;2.60;;;5.30;99.90;;;;;;5052993;28;20025;-79
2020/12/30 10:24:50;;;;;;;16.95;3.28;;;5.30;99.90;;;;;;5070699;28;20027;-79
2020/12/30 10:27:16;;;;;;;25.30;4.05;;;5.30;99.90;;;;;;5070662;28;20036;-80
2020/12/30 10:29:42;;;;;;;12.85;2.90;;;5.20;99.90;;;;;;5053130;28;20024;-79
2020/12/30 10:32:07;;;;;;;18.20;3.85;;;5.20;99.90;;;;;;5071049;28;20092;-79
2020/12/30 10:34:35;;;;;;;14.13;3.75;;;5.30;99.90;;;;;;5072472;28;20407;-79
2020/12/30 10:37:01;;;;;;;25.17;3.58;;;5.30;99.90;;;;;;5074255;28;20052;-79
2020/12/30 10:39:27;;;;;;;14.75;2.90;;;5.30;99.90;;;;;;5074311;28;20066;-79
2020/12/30 10:41:56;;;;;;;10.68;2.65;;;5.30;99.90;;;;;;5074420;28;20048;-79
2020/12/30 10:44:22;;;;;;;14.10;2.83;;;5.40;99.90;;;;;;5056656;28;20056;-79
2020/12/30 10:46:48;;;;;;;15.23;2.97;;;5.40;99.90;;;;;;5056554;28;20025;-79
2020/12/30 10:49:14;;;;;;;20.52;4.13;;;5.40;99.90;;;;;;5074433;28;20029;-79
2020/12/30 10:51:39;;;;;;;20.63;3.42;;;5.40;99.90;;;;;;5074291;28;20147;-79
2020/12/30 10:54:06;;;;;;;20.63;3.03;;;5.40;99.90;;;;;;5074210;28;20021;-79
2020/12/30 10:56:31;;;;;;;12.82;2.67;;;5.40;99.90;;;;;;5074273;28;20085;-79
2020/12/30 10:58:57;;;;;;;20.70;3.67;;;5.40;99.90;;;;;;5074565;28;20028;-78
2020/12/30 11:01:23;;;;;;;19.83;3.08;;;5.40;99.90;;;;;;5074402;28;20028;-80
2020/12/30 11:03:48;;;;;;;22.02;3.33;;;5.40;99.90;;;;;;5074407;28;20021;-77
2020/12/30 11:06:14;;;;;;;19.17;4.78;;;5.40;99.90;;;;;;5073969;28;20503;-79
2020/12/30 11:08:39;;;;;;;13.38;3.13;;;5.40;99.90;;;;;;5074212;28;20032;-78
2020/12/30 11:11:06;;;;;;;16.38;2.63;;;5.50;99.90;;;;;;5073871;28;20032;-78
2020/12/30 11:13:32;;;;;;;10.30;2.75;;;5.40;99.90;;;;;;5056244;28;20491;-78
2020/12/30 11:15:57;;;;;;;12.65;2.35;;;5.40;99.90;;;;;;5074133;28;20033;-79
2020/12/30 11:18:23;;;;;;;8.68;2.10;;;5.30;99.90;;;;;;5073993;28;20021;-79
2020/12/30 11:20:49;;;;;;;9.80;1.67;;;5.30;99.90;;;;;;5056743;28;20108;-79
2020/12/30 11:23:16;;;;;;;12.68;2.28;;;5.30;99.90;;;;;;5074027;28;20536;-78
2020/12/30 11:25:45;;;;;;;7.53;1.98;;;5.20;99.90;;;;;;5073622;28;20086;-78
2020/12/30 11:28:11;;;;;;;15.90;2.42;;;5.20;99.90;;;;;;5073360;28;20484;-79
2020/12/30 11:30:37;;;;;;;17.33;2.58;;;5.20;99.90;;;;;;5056213;28;20111;-78
2020/12/30 11:33:04;;;;;;;16.38;2.03;;;5.10;99.90;;;;;;5055871;28;20462;-78
2020/12/30 11:35:30;;;;;;;10.45;2.10;;;5.20;99.90;;;;;;5073544;28;20033;-78
2020/12/30 11:37:55;;;;;;;18.02;3.22;;;5.20;99.90;;;;;;5055059;28;20530;-80
2020/12/30 11:40:21;;;;;;;13.32;2.10;;;5.10;99.90;;;;;;5055753;28;20028;-79
2020/12/30 11:42:47;;;;;;;14.75;2.35;;;5.20;99.90;;;;;;5073388;28;20075;-78
2020/12/30 11:45:13;;;;;;;6.85;2.05;;;5.10;99.90;;;;;;5072865;28;20032;-79
2020/12/30 11:47:39;;;;;;;8.65;1.92;;;5.10;99.90;;;;;;5073129;28;20099;-80
2020/12/30 11:50:06;;;;;;;33.08;18.40;;;5.10;99.90;;;;;;5073369;28;20429;-79
2020/12/30 11:52:31;;;;;;;21.40;6.80;;;5.10;99.90;;;;;;5073112;28;20033;-80
2020/12/30 11:54:57;;;;;;;70.90;37.40;;;5.10;99.90;;;;;;5073051;28;20143;-79
2020/12/30 11:57:23;;;;;;;15.65;3.10;;;5.10;99.90;;;;;;5072850;28;20071;-80
2020/12/30 11:59:49;;;;;;;7.95;2.67;;;5.10;99.90;;;;;;5055318;28;20024;-79
2020/12/30 12:02:14;;;;;;;15.13;3.92;;;5.10;99.90;;;;;;5073038;28;20020;-79
2020/12/30 12:04:40;;;;;;;17.23;3.30;;;5.10;99.90;;;;;;5072867;28;20416;-78
2020/12/30 12:07:06;;;;;;;5.88;2.17;;;5.10;99.90;;;;;;5072590;28;20056;-79
2020/12/30 12:09:31;;;;;;;21.65;2.72;;;5.10;99.90;;;;;;5072607;28;20041;-79
2020/12/30 12:11:59;;;;;;;18.73;2.60;;;5.00;99.90;;;;;;5072611;28;20028;-79
2020/12/30 12:14:24;;;;;;;13.25;1.63;;;5.00;99.90;;;;;;5072498;28;20542;-79
2020/12/30 12:16:55;;;;;;;14.70;2.22;;;5.00;99.90;;;;;;5054677;28;20025;-81
2020/12/30 12:19:20;;;;;;;11.13;2.20;;;5.00;99.90;;;;;;5054665;28;20502;-80
2020/12/30 12:21:47;;;;;;;26.25;3.25;;;4.90;99.90;;;;;;5072696;28;20035;-79
2020/12/30 12:24:13;;;;;;;5.45;1.58;;;5.00;99.90;;;;;;5054408;28;20391;-81
2020/12/30 12:26:39;;;;;;;10.82;1.75;;;4.90;99.90;;;;;;5063001;28;20107;-81
2020/12/30 12:29:36;;;;;;;11.02;2.05;;;4.90;99.90;;;;;;5054420;28;20036;-80
2020/12/30 12:32:15;;;;;;;10.18;1.88;;;4.90;99.90;;;;;;5054670;28;20070;-80
2020/12/30 12:34:44;;;;;;;5.78;1.48;;;4.80;99.90;;;;;;5072264;28;20025;-81
2020/12/30 12:37:11;;;;;;;10.25;1.98;;;4.90;99.90;;;;;;5071913;28;20020;-79
2020/12/30 12:39:38;;;;;;;21.92;3.50;;;4.90;99.90;;;;;;5052907;28;20082;-79
2020/12/30 12:42:04;;;;;;;29.27;11.40;;;4.90;99.90;;;;;;5063824;28;20090;-80
2020/12/30 12:44:30;;;;;;;12.48;3.67;;;5.00;99.90;;;;;;5072308;28;20025;-79
2020/12/30 12:46:56;;;;;;;16.17;2.25;;;5.00;99.90;;;;;;5072187;28;20031;-80
2020/12/30 12:49:22;;;;;;;17.10;2.83;;;5.00;99.90;;;;;;5070207;28;20028;-81